sensor_id;sensor_type;location;lat;lon;timestamp;P1;durP1;ratioP1;P2;durP2;ratioP2
10311;SDS011;5201;48.776;9.128;2023-05-14T00:00:42;5.90;;;5.30;;
10311;SDS011;5201;48.776;9.128;2023-05-14T00:03:08;7.63;;;5.33;;
10311;SDS011;5201;48.776;9.128;2023-05-14T00:05:34;5.33;;;4.80;;
10311;SDS011;5201;48.776;9.128;2023-05-14T00:07:59;6.20;;;5.30;;
10311;SDS011;5201;48.776;9.128;2023-05-14T00:10:25;6.10;;;4.77;;
10311;SDS011;5201;48.776;9.128;2023-05-14T00:12:51;6.53;;;4.63;;
10311;SDS011;5201;48.776;9.128;2023-05-14T00:15:17;7.13;;;4.93;;
10311;SDS011;5201;48.776;9.128;2023-05-14T00:17:42;6.30;;;4.43;;
10311;SDS011;5201;48.776;9.128;2023-05-14T00:20:08;4.90;;;4.40;;
10311;SDS011;5201;48.776;9.128;2023-05-14T00:22:36;5.00;;;4.50;;
10311;SDS011;5201;48.776;9.128;2023-05-14T00:25:02;6.77;;;4.47;;
10311;SDS011;5201;48.776;9.128;2023-05-14T00:27:28;5.37;;;4.63;;
10311;SDS011;5201;48.776;9.128;2023-05-14T00:29:54;5.80;;;4.80;;
10311;SDS011;5201;48.776;9.128;2023-05-14T00:32:19;7.47;;;5.60;;
10311;SDS011;5201;48.776;9.128;2023-05-14T00:34:45;6.30;;;5.13;;
10311;SDS011;5201;48.776;9.128;2023-05-14T00:37:11;6.40;;;5.00;;
10311;SDS011;5201;48.776;9.128;2023-05-14T00:39:36;8.87;;;5.33;;
10311;SDS011;5201;48.776;9.128;2023-05-14T00:42:02;6.60;;;5.03;;
10311;SDS011;5201;48.776;9.128;2023-05-14T00:44:28;6.73;;;5.47;;
10311;SDS011;5201;48.776;9.128;2023-05-14T00:46:54;6.23;;;5.00;;
10311;SDS011;5201;48.776;9.128;2023-05-14T00:49:19;7.33;;;5.80;;
10311;SDS011;5201;48.776;9.128;2023-05-14T00:51:45;6.90;;;5.70;;
10311;SDS011;5201;48.776;9.128;2023-05-14T00:54:17;6.83;;;5.87;;
10311;SDS011;5201;48.776;9.128;2023-05-14T00:56:45;8.03;;;5.63;;
10311;SDS011;5201;48.776;9.128;2023-05-14T00:59:11;6.20;;;5.13;;
10311;SDS011;5201;48.776;9.128;2023-05-14T01:01:37;6.93;;;5.60;;
10311;SDS011;5201;48.776;9.128;2023-05-14T01:04:03;5.50;;;5.00;;
10311;SDS011;5201;48.776;9.128;2023-05-14T01:09:41;6.37;;;5.40;;
10311;SDS011;5201;48.776;9.128;2023-05-14T01:15:30;6.77;;;5.73;;
10311;SDS011;5201;48.776;9.128;2023-05-14T01:17:59;7.97;;;5.90;;
10311;SDS011;5201;48.776;9.128;2023-05-14T01:20:28;6.40;;;5.50;;
10311;SDS011;5201;48.776;9.128;2023-05-14T01:22:53;6.03;;;5.43;;
10311;SDS011;5201;48.776;9.128;2023-05-14T01:25:19;9.67;;;5.87;;
10311;SDS011;5201;48.776;9.128;2023-05-14T01:27:48;7.83;;;5.87;;
10311;SDS011;5201;48.776;9.128;2023-05-14T01:30:44;6.70;;;6.00;;
10311;SDS011;5201;48.776;9.128;2023-05-14T01:33:21;7.47;;;5.63;;
10311;SDS011;5201;48.776;9.128;2023-05-14T01:35:50;7.60;;;5.50;;
10311;SDS011;5201;48.776;9.128;2023-05-14T01:38:17;6.67;;;5.73;;
10311;SDS011;5201;48.776;9.128;2023-05-14T01:40:44;6.90;;;5.83;;
10311;SDS011;5201;48.776;9.128;2023-05-14T01:43:11;6.63;;;5.50;;
10311;SDS011;5201;48.776;9.128;2023-05-14T01:45:38;7.37;;;5.80;;
10311;SDS011;5201;48.776;9.128;2023-05-14T01:48:04;6.13;;;5.53;;
10311;SDS011;5201;48.776;9.128;2023-05-14T01:50:29;6.07;;;5.47;;
10311;SDS011;5201;48.776;9.128;2023-05-14T01:52:55;12.00;;;6.07;;
10311;SDS011;5201;48.776;9.128;2023-05-14T01:55:21;7.33;;;6.10;;
10311;SDS011;5201;48.776;9.128;2023-05-14T01:57:48;7.87;;;6.23;;
10311;SDS011;5201;48.776;9.128;2023-05-14T02:00:14;6.80;;;5.53;;
10311;SDS011;5201;48.776;9.128;2023-05-14T02:02:40;8.90;;;6.93;;
10311;SDS011;5201;48.776;9.128;2023-05-14T02:05:06;10.10;;;7.00;;
10311;SDS011;5201;48.776;9.128;2023-05-14T02:07:32;6.40;;;5.80;;
10311;SDS011;5201;48.776;9.128;2023-05-14T02:09:57;8.57;;;6.13;;
10311;SDS011;5201;48.776;9.128;2023-05-14T02:12:23;9.80;;;6.80;;
10311;SDS011;5201;48.776;9.128;2023-05-14T02:14:49;7.80;;;6.33;;
10311;SDS011;5201;48.776;9.128;2023-05-14T02:17:14;8.37;;;6.53;;
10311;SDS011;5201;48.776;9.128;2023-05-14T02:19:41;8.53;;;6.70;;
10311;SDS011;5201;48.776;9.128;2023-05-14T02:22:07;7.93;;;6.37;;
10311;SDS011;5201;48.776;9.128;2023-05-14T02:24:33;11.27;;;6.50;;
10311;SDS011;5201;48.776;9.128;2023-05-14T02:26:59;9.03;;;5.97;;
10311;SDS011;5201;48.776;9.128;2023-05-14T02:29:25;8.70;;;6.73;;
10311;SDS011;5201;48.776;9.128;2023-05-14T02:31:51;9.87;;;6.23;;
10311;SDS011;5201;48.776;9.128;2023-05-14T02:34:16;10.70;;;6.97;;
10311;SDS011;5201;48.776;9.128;2023-05-14T02:36:42;11.07;;;6.10;;
10311;SDS011;5201;48.776;9.128;2023-05-14T02:39:07;8.77;;;6.37;;
10311;SDS011;5201;48.776;9.128;2023-05-14T02:41:33;8.37;;;7.43;;
10311;SDS011;5201;48.776;9.128;2023-05-14T02:43:59;10.10;;;6.83;;
10311;SDS011;5201;48.776;9.128;2023-05-14T02:46:24;8.77;;;6.87;;
10311;SDS011;5201;48.776;9.128;2023-05-14T02:48:50;9.03;;;6.53;;
10311;SDS011;5201;48.776;9.128;2023-05-14T02:51:15;8.47;;;6.67;;
10311;SDS011;5201;48.776;9.128;2023-05-14T02:53:41;8.60;;;6.10;;
10311;SDS011;5201;48.776;9.128;2023-05-14T02:56:06;7.37;;;6.30;;
10311;SDS011;5201;48.776;9.128;2023-05-14T02:58:32;8.17;;;7.17;;
10311;SDS011;5201;48.776;9.128;2023-05-14T03:00:58;8.63;;;6.40;;
10311;SDS011;5201;48.776;9.128;2023-05-14T03:03:24;15.17;;;6.63;;
10311;SDS011;5201;48.776;9.128;2023-05-14T03:05:49;6.97;;;5.77;;
10311;SDS011;5201;48.776;9.128;2023-05-14T03:08:15;7.03;;;6.10;;
10311;SDS011;5201;48.776;9.128;2023-05-14T03:10:41;11.07;;;5.93;;
10311;SDS011;5201;48.776;9.128;2023-05-14T03:13:07;7.87;;;6.17;;
10311;SDS011;5201;48.776;9.128;2023-05-14T03:15:32;8.93;;;6.27;;
10311;SDS011;5201;48.776;9.128;2023-05-14T03:17:58;9.37;;;6.50;;
10311;SDS011;5201;48.776;9.128;2023-05-14T03:20:23;8.50;;;6.23;;
10311;SDS011;5201;48.776;9.128;2023-05-14T03:22:49;8.47;;;6.37;;
10311;SDS011;5201;48.776;9.128;2023-05-14T03:25:15;9.40;;;6.57;;
10311;SDS011;5201;48.776;9.128;2023-05-14T03:27:41;7.77;;;6.97;;
10311;SDS011;5201;48.776;9.128;2023-05-14T03:30:06;8.33;;;6.77;;
10311;SDS011;5201;48.776;9.128;2023-05-14T03:32:32;7.17;;;6.40;;
10311;SDS011;5201;48.776;9.128;2023-05-14T03:34:58;11.23;;;6.70;;
10311;SDS011;5201;48.776;9.128;2023-05-14T03:37:24;9.07;;;6.97;;
10311;SDS011;5201;48.776;9.128;2023-05-14T03:39:49;9.73;;;6.33;;
10311;SDS011;5201;48.776;9.128;2023-05-14T03:42:15;8.83;;;7.00;;
10311;SDS011;5201;48.776;9.128;2023-05-14T03:44:40;8.60;;;6.87;;
10311;SDS011;5201;48.776;9.128;2023-05-14T03:47:06;9.00;;;7.03;;
10311;SDS011;5201;48.776;9.128;2023-05-14T03:49:32;10.20;;;6.53;;
10311;SDS011;5201;48.776;9.128;2023-05-14T03:51:57;11.73;;;7.03;;
10311;SDS011;5201;48.776;9.128;2023-05-14T03:54:23;7.00;;;6.07;;
10311;SDS011;5201;48.776;9.128;2023-05-14T03:56:50;6.70;;;5.93;;
10311;SDS011;5201;48.776;9.128;2023-05-14T03:59:15;8.00;;;6.73;;
10311;SDS011;5201;48.776;9.128;2023-05-14T04:01:41;6.93;;;6.20;;
10311;SDS011;5201;48.776;9.128;2023-05-14T04:04:07;8.77;;;6.87;;
10311;SDS011;5201;48.776;9.128;2023-05-14T04:06:32;8.13;;;6.93;;
10311;SDS011;5201;48.776;9.128;2023-05-14T04:08:58;7.80;;;6.40;;
10311;SDS011;5201;48.776;9.128;2023-05-14T04:11:23;7.63;;;5.90;;
10311;SDS011;5201;48.776;9.128;2023-05-14T04:13:49;7.23;;;5.80;;
10311;SDS011;5201;48.776;9.128;2023-05-14T04:16:14;8.70;;;6.53;;
10311;SDS011;5201;48.776;9.128;2023-05-14T04:18:40;8.77;;;6.13;;
10311;SDS011;5201;48.776;9.128;2023-05-14T04:21:05;10.40;;;6.50;;
10311;SDS011;5201;48.776;9.128;2023-05-14T04:23:31;6.43;;;5.70;;
10311;SDS011;5201;48.776;9.128;2023-05-14T04:25:57;6.80;;;5.80;;
10311;SDS011;5201;48.776;9.128;2023-05-14T04:28:23;8.30;;;6.30;;
10311;SDS011;5201;48.776;9.128;2023-05-14T04:30:48;9.43;;;6.07;;
10311;SDS011;5201;48.776;9.128;2023-05-14T04:33:14;8.37;;;6.37;;
10311;SDS011;5201;48.776;9.128;2023-05-14T04:35:40;10.63;;;5.90;;
10311;SDS011;5201;48.776;9.128;2023-05-14T04:38:08;7.93;;;5.73;;
10311;SDS011;5201;48.776;9.128;2023-05-14T04:40:34;7.23;;;5.73;;
10311;SDS011;5201;48.776;9.128;2023-05-14T04:42:59;9.63;;;6.50;;
10311;SDS011;5201;48.776;9.128;2023-05-14T04:45:25;9.03;;;6.10;;
10311;SDS011;5201;48.776;9.128;2023-05-14T04:47:51;7.87;;;6.20;;
10311;SDS011;5201;48.776;9.128;2023-05-14T04:50:16;9.17;;;6.50;;
10311;SDS011;5201;48.776;9.128;2023-05-14T04:52:42;11.03;;;5.53;;
10311;SDS011;5201;48.776;9.128;2023-05-14T04:55:08;6.93;;;5.60;;
10311;SDS011;5201;48.776;9.128;2023-05-14T04:57:34;7.33;;;6.33;;
10311;SDS011;5201;48.776;9.128;2023-05-14T04:59:59;7.60;;;6.17;;
10311;SDS011;5201;48.776;9.128;2023-05-14T05:02:25;8.47;;;6.33;;
10311;SDS011;5201;48.776;9.128;2023-05-14T05:04:50;7.13;;;6.03;;
10311;SDS011;5201;48.776;9.128;2023-05-14T05:07:16;8.20;;;6.77;;
10311;SDS011;5201;48.776;9.128;2023-05-14T05:09:42;7.00;;;5.90;;
10311;SDS011;5201;48.776;9.128;2023-05-14T05:12:08;9.30;;;6.63;;
10311;SDS011;5201;48.776;9.128;2023-05-14T05:14:33;9.07;;;6.80;;
10311;SDS011;5201;48.776;9.128;2023-05-14T05:16:59;8.13;;;6.17;;
10311;SDS011;5201;48.776;9.128;2023-05-14T05:19:25;8.10;;;6.57;;
10311;SDS011;5201;48.776;9.128;2023-05-14T05:21:50;9.33;;;6.80;;
10311;SDS011;5201;48.776;9.128;2023-05-14T05:24:16;9.77;;;6.50;;
10311;SDS011;5201;48.776;9.128;2023-05-14T05:26:41;7.27;;;5.63;;
10311;SDS011;5201;48.776;9.128;2023-05-14T05:29:07;6.50;;;5.77;;
10311;SDS011;5201;48.776;9.128;2023-05-14T05:31:33;8.07;;;6.70;;
10311;SDS011;5201;48.776;9.128;2023-05-14T05:33:58;8.47;;;6.50;;
10311;SDS011;5201;48.776;9.128;2023-05-14T05:36:25;8.17;;;6.37;;
10311;SDS011;5201;48.776;9.128;2023-05-14T05:38:51;8.57;;;6.70;;
10311;SDS011;5201;48.776;9.128;2023-05-14T05:41:17;7.57;;;6.53;;
10311;SDS011;5201;48.776;9.128;2023-05-14T05:43:42;8.60;;;6.03;;
10311;SDS011;5201;48.776;9.128;2023-05-14T05:46:08;8.83;;;6.60;;
10311;SDS011;5201;48.776;9.128;2023-05-14T05:48:33;8.67;;;6.40;;
10311;SDS011;5201;48.776;9.128;2023-05-14T05:50:59;7.03;;;6.23;;
10311;SDS011;5201;48.776;9.128;2023-05-14T05:53:25;8.83;;;6.77;;
10311;SDS011;5201;48.776;9.128;2023-05-14T05:55:50;7.03;;;5.77;;
10311;SDS011;5201;48.776;9.128;2023-05-14T05:58:16;8.83;;;6.73;;
10311;SDS011;5201;48.776;9.128;2023-05-14T06:00:43;7.83;;;6.00;;
10311;SDS011;5201;48.776;9.128;2023-05-14T06:03:09;7.00;;;6.30;;
10311;SDS011;5201;48.776;9.128;2023-05-14T06:05:35;7.67;;;6.03;;
10311;SDS011;5201;48.776;9.128;2023-05-14T06:08:00;9.40;;;6.73;;
10311;SDS011;5201;48.776;9.128;2023-05-14T06:10:26;7.33;;;6.33;;
10311;SDS011;5201;48.776;9.128;2023-05-14T06:12:52;10.73;;;6.03;;
10311;SDS011;5201;48.776;9.128;2023-05-14T06:15:18;11.07;;;6.60;;
10311;SDS011;5201;48.776;9.128;2023-05-14T06:17:43;9.63;;;6.53;;
10311;SDS011;5201;48.776;9.128;2023-05-14T06:20:10;8.67;;;5.87;;
10311;SDS011;5201;48.776;9.128;2023-05-14T06:22:35;8.00;;;6.50;;
10311;SDS011;5201;48.776;9.128;2023-05-14T06:25:01;9.03;;;6.53;;
10311;SDS011;5201;48.776;9.128;2023-05-14T06:27:27;11.23;;;6.73;;
10311;SDS011;5201;48.776;9.128;2023-05-14T06:29:53;8.70;;;6.20;;
10311;SDS011;5201;48.776;9.128;2023-05-14T06:32:18;7.67;;;6.00;;
10311;SDS011;5201;48.776;9.128;2023-05-14T06:34:44;7.47;;;5.83;;
10311;SDS011;5201;48.776;9.128;2023-05-14T06:37:09;9.60;;;6.87;;
10311;SDS011;5201;48.776;9.128;2023-05-14T06:39:36;11.53;;;6.97;;
10311;SDS011;5201;48.776;9.128;2023-05-14T06:42:02;7.93;;;6.40;;
10311;SDS011;5201;48.776;9.128;2023-05-14T06:44:27;7.30;;;5.77;;
10311;SDS011;5201;48.776;9.128;2023-05-14T06:46:53;6.90;;;6.20;;
10311;SDS011;5201;48.776;9.128;2023-05-14T06:49:19;6.97;;;5.77;;
10311;SDS011;5201;48.776;9.128;2023-05-14T06:51:45;9.17;;;5.63;;
10311;SDS011;5201;48.776;9.128;2023-05-14T06:54:10;6.67;;;5.60;;
10311;SDS011;5201;48.776;9.128;2023-05-14T06:56:36;9.33;;;6.43;;
10311;SDS011;5201;48.776;9.128;2023-05-14T06:59:02;8.93;;;6.30;;
10311;SDS011;5201;48.776;9.128;2023-05-14T07:01:28;5.97;;;5.37;;
10311;SDS011;5201;48.776;9.128;2023-05-14T07:03:54;7.30;;;5.53;;
10311;SDS011;5201;48.776;9.128;2023-05-14T07:06:20;8.25;;;6.50;;
10311;SDS011;5201;48.776;9.128;2023-05-14T07:08:46;7.50;;;5.23;;
10311;SDS011;5201;48.776;9.128;2023-05-14T07:11:12;8.20;;;5.07;;
10311;SDS011;5201;48.776;9.128;2023-05-14T07:13:37;6.43;;;5.03;;
10311;SDS011;5201;48.776;9.128;2023-05-14T07:16:04;8.60;;;5.63;;
10311;SDS011;5201;48.776;9.128;2023-05-14T07:18:31;6.90;;;5.60;;
10311;SDS011;5201;48.776;9.128;2023-05-14T07:20:56;6.07;;;4.67;;
10311;SDS011;5201;48.776;9.128;2023-05-14T07:23:22;9.80;;;6.47;;
10311;SDS011;5201;48.776;9.128;2023-05-14T07:25:47;9.07;;;5.77;;
10311;SDS011;5201;48.776;9.128;2023-05-14T07:28:13;6.17;;;4.93;;
10311;SDS011;5201;48.776;9.128;2023-05-14T07:30:39;7.00;;;5.73;;
10311;SDS011;5201;48.776;9.128;2023-05-14T07:33:04;6.70;;;5.50;;
10311;SDS011;5201;48.776;9.128;2023-05-14T07:35:30;12.50;;;5.80;;
10311;SDS011;5201;48.776;9.128;2023-05-14T07:37:55;6.87;;;5.73;;
10311;SDS011;5201;48.776;9.128;2023-05-14T07:40:21;8.70;;;5.70;;
10311;SDS011;5201;48.776;9.128;2023-05-14T07:42:48;7.03;;;5.07;;
10311;SDS011;5201;48.776;9.128;2023-05-14T07:45:14;7.80;;;5.23;;
10311;SDS011;5201;48.776;9.128;2023-05-14T07:47:40;7.83;;;5.70;;
10311;SDS011;5201;48.776;9.128;2023-05-14T07:50:06;6.77;;;5.53;;
10311;SDS011;5201;48.776;9.128;2023-05-14T07:52:32;6.80;;;5.37;;
10311;SDS011;5201;48.776;9.128;2023-05-14T07:54:58;7.33;;;5.67;;
10311;SDS011;5201;48.776;9.128;2023-05-14T07:57:25;6.63;;;5.30;;
10311;SDS011;5201;48.776;9.128;2023-05-14T07:59:50;7.03;;;5.57;;
10311;SDS011;5201;48.776;9.128;2023-05-14T08:02:16;6.67;;;5.73;;
10311;SDS011;5201;48.776;9.128;2023-05-14T08:04:42;6.07;;;4.23;;
10311;SDS011;5201;48.776;9.128;2023-05-14T08:07:07;6.70;;;4.87;;
10311;SDS011;5201;48.776;9.128;2023-05-14T08:09:33;6.43;;;4.43;;
10311;SDS011;5201;48.776;9.128;2023-05-14T08:11:59;6.90;;;4.47;;
10311;SDS011;5201;48.776;9.128;2023-05-14T08:14:25;7.30;;;4.10;;
10311;SDS011;5201;48.776;9.128;2023-05-14T08:16:50;4.03;;;3.42;;
10311;SDS011;5201;48.776;9.128;2023-05-14T08:19:16;3.97;;;3.60;;
10311;SDS011;5201;48.776;9.128;2023-05-14T08:21:41;6.90;;;3.78;;
10311;SDS011;5201;48.776;9.128;2023-05-14T08:24:07;4.15;;;3.72;;
10311;SDS011;5201;48.776;9.128;2023-05-14T08:26:32;5.55;;;3.58;;
10311;SDS011;5201;48.776;9.128;2023-05-14T08:28:58;4.38;;;3.50;;
10311;SDS011;5201;48.776;9.128;2023-05-14T08:31:24;4.72;;;3.95;;
10311;SDS011;5201;48.776;9.128;2023-05-14T08:33:49;5.25;;;3.70;;
10311;SDS011;5201;48.776;9.128;2023-05-14T08:36:15;4.47;;;3.60;;
10311;SDS011;5201;48.776;9.128;2023-05-14T08:38:43;4.72;;;3.83;;
10311;SDS011;5201;48.776;9.128;2023-05-14T08:41:14;4.53;;;3.90;;
10311;SDS011;5201;48.776;9.128;2023-05-14T08:44:05;5.22;;;4.28;;
10311;SDS011;5201;48.776;9.128;2023-05-14T08:46:37;6.18;;;4.55;;
10311;SDS011;5201;48.776;9.128;2023-05-14T08:49:14;5.80;;;4.15;;
10311;SDS011;5201;48.776;9.128;2023-05-14T08:51:50;5.90;;;4.53;;
10311;SDS011;5201;48.776;9.128;2023-05-14T08:54:16;6.68;;;4.43;;
10311;SDS011;5201;48.776;9.128;2023-05-14T08:56:43;4.47;;;4.00;;
10311;SDS011;5201;48.776;9.128;2023-05-14T08:59:10;6.50;;;4.13;;
10311;SDS011;5201;48.776;9.128;2023-05-14T09:01:36;5.85;;;4.45;;
10311;SDS011;5201;48.776;9.128;2023-05-14T09:04:04;4.95;;;4.43;;
10311;SDS011;5201;48.776;9.128;2023-05-14T09:06:35;6.25;;;5.15;;
10311;SDS011;5201;48.776;9.128;2023-05-14T09:09:02;7.15;;;5.30;;
10311;SDS011;5201;48.776;9.128;2023-05-14T09:11:28;5.60;;;4.70;;
10311;SDS011;5201;48.776;9.128;2023-05-14T09:13:54;7.50;;;5.47;;
10311;SDS011;5201;48.776;9.128;2023-05-14T09:16:19;6.63;;;4.60;;
10311;SDS011;5201;48.776;9.128;2023-05-14T09:18:46;6.20;;;5.17;;
10311;SDS011;5201;48.776;9.128;2023-05-14T09:21:12;6.43;;;4.80;;
10311;SDS011;5201;48.776;9.128;2023-05-14T09:23:41;8.43;;;5.30;;
10311;SDS011;5201;48.776;9.128;2023-05-14T09:26:08;7.43;;;5.83;;
10311;SDS011;5201;48.776;9.128;2023-05-14T09:28:34;8.07;;;5.40;;
10311;SDS011;5201;48.776;9.128;2023-05-14T09:31:01;7.43;;;5.33;;
10311;SDS011;5201;48.776;9.128;2023-05-14T09:33:27;5.30;;;4.80;;
10311;SDS011;5201;48.776;9.128;2023-05-14T09:35:59;6.87;;;5.10;;
10311;SDS011;5201;48.776;9.128;2023-05-14T09:38:29;7.33;;;5.77;;
10311;SDS011;5201;48.776;9.128;2023-05-14T09:40:55;6.80;;;4.87;;
10311;SDS011;5201;48.776;9.128;2023-05-14T09:43:21;8.00;;;5.00;;
10311;SDS011;5201;48.776;9.128;2023-05-14T09:45:47;6.77;;;4.77;;
10311;SDS011;5201;48.776;9.128;2023-05-14T09:48:13;8.10;;;5.30;;
10311;SDS011;5201;48.776;9.128;2023-05-14T09:50:42;8.30;;;5.13;;
10311;SDS011;5201;48.776;9.128;2023-05-14T09:53:09;7.80;;;5.87;;
10311;SDS011;5201;48.776;9.128;2023-05-14T09:55:35;5.37;;;4.20;;
10311;SDS011;5201;48.776;9.128;2023-05-14T09:58:01;7.60;;;4.73;;
10311;SDS011;5201;48.776;9.128;2023-05-14T10:00:28;7.57;;;5.00;;
10311;SDS011;5201;48.776;9.128;2023-05-14T10:02:56;6.33;;;4.20;;
10311;SDS011;5201;48.776;9.128;2023-05-14T10:05:22;6.23;;;4.47;;
10311;SDS011;5201;48.776;9.128;2023-05-14T10:07:48;6.50;;;4.37;;
10311;SDS011;5201;48.776;9.128;2023-05-14T10:10:19;4.70;;;3.87;;
10311;SDS011;5201;48.776;9.128;2023-05-14T10:12:50;5.90;;;4.50;;
10311;SDS011;5201;48.776;9.128;2023-05-14T10:15:19;7.13;;;4.97;;
10311;SDS011;5201;48.776;9.128;2023-05-14T10:18:11;5.80;;;4.60;;
10311;SDS011;5201;48.776;9.128;2023-05-14T10:20:40;5.93;;;4.60;;
10311;SDS011;5201;48.776;9.128;2023-05-14T10:23:07;5.07;;;4.57;;
10311;SDS011;5201;48.776;9.128;2023-05-14T10:25:33;6.33;;;4.80;;
10311;SDS011;5201;48.776;9.128;2023-05-14T10:28:00;7.37;;;4.87;;
10311;SDS011;5201;48.776;9.128;2023-05-14T10:30:26;5.90;;;4.67;;
10311;SDS011;5201;48.776;9.128;2023-05-14T10:33:08;6.50;;;5.17;;
10311;SDS011;5201;48.776;9.128;2023-05-14T10:35:56;5.90;;;3.73;;
10311;SDS011;5201;48.776;9.128;2023-05-14T10:38:34;4.30;;;3.37;;
10311;SDS011;5201;48.776;9.128;2023-05-14T10:41:02;4.83;;;3.00;;
10311;SDS011;5201;48.776;9.128;2023-05-14T10:43:42;2.83;;;2.63;;
10311;SDS011;5201;48.776;9.128;2023-05-14T10:46:08;4.33;;;2.87;;
10311;SDS011;5201;48.776;9.128;2023-05-14T10:48:36;3.70;;;2.83;;
10311;SDS011;5201;48.776;9.128;2023-05-14T10:51:03;5.10;;;3.00;;
10311;SDS011;5201;48.776;9.128;2023-05-14T10:53:35;4.47;;;3.37;;
10311;SDS011;5201;48.776;9.128;2023-05-14T10:56:07;4.43;;;3.30;;
10311;SDS011;5201;48.776;9.128;2023-05-14T10:58:37;4.10;;;2.80;;
10311;SDS011;5201;48.776;9.128;2023-05-14T11:01:07;5.57;;;3.47;;
10311;SDS011;5201;48.776;9.128;2023-05-14T11:03:44;3.90;;;3.50;;
10311;SDS011;5201;48.776;9.128;2023-05-14T11:06:11;3.23;;;2.93;;
10311;SDS011;5201;48.776;9.128;2023-05-14T11:08:39;5.90;;;3.53;;
10311;SDS011;5201;48.776;9.128;2023-05-14T11:11:05;4.30;;;3.90;;
10311;SDS011;5201;48.776;9.128;2023-05-14T11:13:33;9.83;;;4.00;;
10311;SDS011;5201;48.776;9.128;2023-05-14T11:15:59;4.57;;;3.70;;
10311;SDS011;5201;48.776;9.128;2023-05-14T11:18:26;5.87;;;4.30;;
10311;SDS011;5201;48.776;9.128;2023-05-14T11:20:56;9.10;;;4.97;;
10311;SDS011;5201;48.776;9.128;2023-05-14T11:23:23;6.83;;;5.23;;
10311;SDS011;5201;48.776;9.128;2023-05-14T11:25:50;7.10;;;4.47;;
10311;SDS011;5201;48.776;9.128;2023-05-14T11:28:17;8.13;;;4.43;;
10311;SDS011;5201;48.776;9.128;2023-05-14T11:30:43;5.37;;;4.27;;
10311;SDS011;5201;48.776;9.128;2023-05-14T11:33:10;7.57;;;5.10;;
10311;SDS011;5201;48.776;9.128;2023-05-14T11:35:36;5.30;;;4.33;;
10311;SDS011;5201;48.776;9.128;2023-05-14T11:38:02;4.97;;;4.17;;
10311;SDS011;5201;48.776;9.128;2023-05-14T11:40:27;4.60;;;4.00;;
10311;SDS011;5201;48.776;9.128;2023-05-14T11:42:53;4.23;;;3.83;;
10311;SDS011;5201;48.776;9.128;2023-05-14T11:45:25;4.60;;;3.40;;
10311;SDS011;5201;48.776;9.128;2023-05-14T11:47:51;5.00;;;4.30;;
10311;SDS011;5201;48.776;9.128;2023-05-14T11:50:19;4.00;;;3.40;;
10311;SDS011;5201;48.776;9.128;2023-05-14T11:52:46;4.50;;;3.50;;
10311;SDS011;5201;48.776;9.128;2023-05-14T11:55:14;5.47;;;3.60;;
10311;SDS011;5201;48.776;9.128;2023-05-14T11:57:40;3.47;;;3.00;;
10311;SDS011;5201;48.776;9.128;2023-05-14T12:00:07;3.40;;;3.03;;
10311;SDS011;5201;48.776;9.128;2023-05-14T12:02:45;4.03;;;3.63;;
10311;SDS011;5201;48.776;9.128;2023-05-14T12:05:12;7.13;;;3.40;;
10311;SDS011;5201;48.776;9.128;2023-05-14T12:07:38;5.97;;;3.87;;
10311;SDS011;5201;48.776;9.128;2023-05-14T12:10:04;3.73;;;3.27;;
10311;SDS011;5201;48.776;9.128;2023-05-14T12:12:33;4.93;;;3.43;;
10311;SDS011;5201;48.776;9.128;2023-05-14T12:15:00;4.07;;;3.07;;
10311;SDS011;5201;48.776;9.128;2023-05-14T12:17:26;5.83;;;2.90;;
10311;SDS011;5201;48.776;9.128;2023-05-14T12:19:52;3.70;;;2.53;;
10311;SDS011;5201;48.776;9.128;2023-05-14T12:22:18;2.97;;;2.30;;
10311;SDS011;5201;48.776;9.128;2023-05-14T12:24:51;3.93;;;3.13;;
10311;SDS011;5201;48.776;9.128;2023-05-14T12:27:20;7.00;;;3.00;;
10311;SDS011;5201;48.776;9.128;2023-05-14T12:29:57;4.10;;;2.80;;
10311;SDS011;5201;48.776;9.128;2023-05-14T12:32:24;4.00;;;3.60;;
10311;SDS011;5201;48.776;9.128;2023-05-14T12:34:50;4.90;;;3.40;;
10311;SDS011;5201;48.776;9.128;2023-05-14T12:37:15;4.80;;;3.30;;
10311;SDS011;5201;48.776;9.128;2023-05-14T12:39:42;7.67;;;3.30;;
10311;SDS011;5201;48.776;9.128;2023-05-14T12:42:08;7.03;;;3.27;;
10311;SDS011;5201;48.776;9.128;2023-05-14T12:44:33;5.90;;;2.70;;
10311;SDS011;5201;48.776;9.128;2023-05-14T12:46:59;3.37;;;3.07;;
10311;SDS011;5201;48.776;9.128;2023-05-14T12:49:24;5.13;;;3.17;;
10311;SDS011;5201;48.776;9.128;2023-05-14T12:51:50;3.53;;;2.60;;
10311;SDS011;5201;48.776;9.128;2023-05-14T12:54:16;3.93;;;3.03;;
10311;SDS011;5201;48.776;9.128;2023-05-14T12:56:41;3.60;;;2.93;;
10311;SDS011;5201;48.776;9.128;2023-05-14T12:59:07;3.80;;;3.40;;
10311;SDS011;5201;48.776;9.128;2023-05-14T13:01:33;4.20;;;2.33;;
10311;SDS011;5201;48.776;9.128;2023-05-14T13:03:59;4.53;;;2.90;;
10311;SDS011;5201;48.776;9.128;2023-05-14T13:06:24;2.70;;;2.47;;
10311;SDS011;5201;48.776;9.128;2023-05-14T13:08:50;2.33;;;2.13;;
10311;SDS011;5201;48.776;9.128;2023-05-14T13:11:16;2.47;;;2.20;;
10311;SDS011;5201;48.776;9.128;2023-05-14T13:13:41;3.27;;;2.30;;
10311;SDS011;5201;48.776;9.128;2023-05-14T13:16:07;2.33;;;1.97;;
10311;SDS011;5201;48.776;9.128;2023-05-14T13:18:32;3.33;;;2.47;;
10311;SDS011;5201;48.776;9.128;2023-05-14T13:20:58;4.23;;;2.33;;
10311;SDS011;5201;48.776;9.128;2023-05-14T13:23:24;2.70;;;2.20;;
10311;SDS011;5201;48.776;9.128;2023-05-14T13:25:49;3.23;;;2.57;;
10311;SDS011;5201;48.776;9.128;2023-05-14T13:28:15;2.03;;;1.83;;
10311;SDS011;5201;48.776;9.128;2023-05-14T13:30:41;2.80;;;2.37;;
10311;SDS011;5201;48.776;9.128;2023-05-14T13:33:26;2.10;;;2.00;;
10311;SDS011;5201;48.776;9.128;2023-05-14T13:35:52;2.60;;;2.33;;
10311;SDS011;5201;48.776;9.128;2023-05-14T13:38:17;4.17;;;2.60;;
10311;SDS011;5201;48.776;9.128;2023-05-14T13:40:43;2.37;;;2.17;;
10311;SDS011;5201;48.776;9.128;2023-05-14T13:43:08;2.93;;;2.20;;
10311;SDS011;5201;48.776;9.128;2023-05-14T13:45:34;3.03;;;2.50;;
10311;SDS011;5201;48.776;9.128;2023-05-14T13:48:00;2.13;;;1.90;;
10311;SDS011;5201;48.776;9.128;2023-05-14T13:50:25;2.50;;;2.30;;
10311;SDS011;5201;48.776;9.128;2023-05-14T13:52:51;2.40;;;1.90;;
10311;SDS011;5201;48.776;9.128;2023-05-14T13:55:16;4.53;;;2.23;;
10311;SDS011;5201;48.776;9.128;2023-05-14T13:57:42;2.30;;;2.10;;
10311;SDS011;5201;48.776;9.128;2023-05-14T14:00:08;3.83;;;2.67;;
10311;SDS011;5201;48.776;9.128;2023-05-14T14:02:35;3.57;;;2.60;;
10311;SDS011;5201;48.776;9.128;2023-05-14T14:05:00;2.43;;;2.23;;
10311;SDS011;5201;48.776;9.128;2023-05-14T14:07:26;3.30;;;2.37;;
10311;SDS011;5201;48.776;9.128;2023-05-14T14:09:51;2.37;;;1.90;;
10311;SDS011;5201;48.776;9.128;2023-05-14T14:12:17;4.57;;;2.20;;
10311;SDS011;5201;48.776;9.128;2023-05-14T14:14:42;1.77;;;1.63;;
10311;SDS011;5201;48.776;9.128;2023-05-14T14:17:08;1.80;;;1.70;;
10311;SDS011;5201;48.776;9.128;2023-05-14T14:19:33;2.10;;;1.90;;
10311;SDS011;5201;48.776;9.128;2023-05-14T14:21:59;2.00;;;1.80;;
10311;SDS011;5201;48.776;9.128;2023-05-14T14:24:25;4.17;;;1.70;;
10311;SDS011;5201;48.776;9.128;2023-05-14T14:26:50;1.93;;;1.67;;
10311;SDS011;5201;48.776;9.128;2023-05-14T14:29:17;2.20;;;1.87;;
10311;SDS011;5201;48.776;9.128;2023-05-14T14:31:43;1.90;;;1.80;;
10311;SDS011;5201;48.776;9.128;2023-05-14T14:34:08;1.60;;;1.50;;
10311;SDS011;5201;48.776;9.128;2023-05-14T14:36:34;2.57;;;1.57;;
10311;SDS011;5201;48.776;9.128;2023-05-14T14:38:59;4.30;;;1.90;;
10311;SDS011;5201;48.776;9.128;2023-05-14T14:41:25;2.23;;;1.80;;
10311;SDS011;5201;48.776;9.128;2023-05-14T14:43:57;2.57;;;1.60;;
10311;SDS011;5201;48.776;9.128;2023-05-14T14:46:23;3.43;;;2.17;;
10311;SDS011;5201;48.776;9.128;2023-05-14T14:48:49;2.50;;;2.17;;
10311;SDS011;5201;48.776;9.128;2023-05-14T14:51:14;2.10;;;1.90;;
10311;SDS011;5201;48.776;9.128;2023-05-14T14:53:40;3.10;;;2.00;;
10311;SDS011;5201;48.776;9.128;2023-05-14T14:56:05;2.27;;;1.97;;
10311;SDS011;5201;48.776;9.128;2023-05-14T14:58:31;1.83;;;1.70;;
10311;SDS011;5201;48.776;9.128;2023-05-14T15:00:57;1.67;;;1.57;;
10311;SDS011;5201;48.776;9.128;2023-05-14T15:03:23;2.20;;;1.50;;